Time;durP1;ratioP1;P1;durP2;ratioP2;P2;SDS_P1;SDS_P2;PMS_P1;PMS_P2;Temp;Humidity;BMP_temperature;BMP_pressure;BME280_temperature;BME280_humidity;BME280_pressure;Samples;Min_cycle;Max_cycle;Signal;HPM_P1;HPM_P2
2022/07/08 00:01:54;;;;;;;4.90;4.70;;;;;;;;;;5090609;28;20046;-61
2022/07/08 00:04:20;;;;;;;4.85;4.65;;;;;;;;;;5089519;28;20169;-62
2022/07/08 00:06:45;;;;;;;5.00;4.80;;;;;;;;;;5091384;28;20399;-60
2022/07/08 00:09:11;;;;;;;4.90;4.70;;;;;;;;;;5091587;28;20024;-61
2022/07/08 00:11:36;;;;;;;4.90;4.70;;;;;;;;;;5091829;28;20024;-60
2022/07/08 00:14:02;;;;;;;5.00;4.80;;;;;;;;;;5091403;28;20069;-61
2022/07/08 00:16:28;;;;;;;4.90;4.70;;;;;;;;;;5091691;28;20024;-61
2022/07/08 00:18:53;;;;;;;4.90;4.70;;;;;;;;;;5089227;28;20051;-60
2022/07/08 00:21:18;;;;;;;4.80;4.60;;;;;;;;;;5091610;28;20016;-61
2022/07/08 00:23:44;;;;;;;4.80;4.60;;;;;;;;;;5091841;28;20499;-61
2022/07/08 00:26:09;;;;;;;4.90;4.70;;;;;;;;;;5091348;28;20120;-61
2022/07/08 00:28:35;;;;;;;4.63;4.43;;;;;;;;;;5091835;28;20024;-62
2022/07/08 00:31:00;;;;;;;5.00;4.80;;;;;;;;;;5091645;28;20028;-61
2022/07/08 00:33:25;;;;;;;4.88;4.68;;;;;;;;;;5091378;28;20069;-60
2022/07/08 00:35:50;;;;;;;4.97;4.78;;;;;;;;;;5090563;28;20104;-60
2022/07/08 00:38:16;;;;;;;4.75;4.55;;;;;;;;;;5096071;28;20024;-62
2022/07/08 00:40:41;;;;;;;4.80;4.60;;;;;;;;;;5091359;28;20081;-62
2022/07/08 00:43:06;;;;;;;4.80;4.60;;;;;;;;;;5091200;28;20016;-62
2022/07/08 00:45:32;;;;;;;4.60;4.40;;;;;;;;;;5097358;28;20450;-62
2022/07/08 00:47:57;;;;;;;4.80;4.60;;;;;;;;;;5091187;28;20032;-61
2022/07/08 00:50:22;;;;;;;4.80;4.60;;;;;;;;;;5093908;28;20035;-62
2022/07/08 00:52:48;;;;;;;4.90;4.70;;;;;;;;;;5094317;28;20018;-62
2022/07/08 00:55:14;;;;;;;4.90;4.70;;;;;;;;;;5086655;28;20077;-61
2022/07/08 00:57:39;;;;;;;4.80;4.60;;;;;;;;;;5094884;28;20433;-60
2022/07/08 01:00:05;;;;;;;4.90;4.70;;;;;;;;;;5094675;28;20433;-60
2022/07/08 01:02:30;;;;;;;4.80;4.60;;;;;;;;;;5095452;28;20031;-62
2022/07/08 01:04:55;;;;;;;4.80;4.60;;;;;;;;;;5094517;28;20383;-61
2022/07/08 01:07:21;;;;;;;4.90;4.70;;;;;;;;;;5091075;28;20157;-60
2022/07/08 01:09:47;;;;;;;4.78;4.57;;;;;;;;;;5084693;28;20395;-61
2022/07/08 01:12:12;;;;;;;4.68;4.47;;;;;;;;;;5094301;28;20035;-61
2022/07/08 01:14:37;;;;;;;4.75;4.55;;;;;;;;;;5094885;28;20027;-60
2022/07/08 01:17:03;;;;;;;4.90;4.70;;;;;;;;;;5094388;28;20472;-61
2022/07/08 01:19:28;;;;;;;4.82;4.63;;;;;;;;;;5097371;28;20036;-62
2022/07/08 01:21:55;;;;;;;4.80;4.60;;;;;;;;;;5100720;28;20089;-61
2022/07/08 01:24:21;;;;;;;4.78;4.57;;;;;;;;;;5094558;28;20041;-62
2022/07/08 01:26:46;;;;;;;4.90;4.70;;;;;;;;;;5093587;28;20039;-61
2022/07/08 01:29:12;;;;;;;4.72;4.53;;;;;;;;;;5094002;28;20472;-60
2022/07/08 01:31:38;;;;;;;4.80;4.60;;;;;;;;;;5094051;28;20111;-61
2022/07/08 01:34:03;;;;;;;4.78;4.57;;;;;;;;;;5098841;28;20058;-61
2022/07/08 01:36:28;;;;;;;4.72;4.53;;;;;;;;;;5094518;28;20035;-61
2022/07/08 01:38:54;;;;;;;4.80;4.60;;;;;;;;;;5092866;28;20087;-62
2022/07/08 01:41:19;;;;;;;4.78;4.57;;;;;;;;;;5094030;28;20098;-61
2022/07/08 01:43:44;;;;;;;4.88;4.68;;;;;;;;;;5092650;28;20095;-62
2022/07/08 01:46:09;;;;;;;4.70;4.50;;;;;;;;;;5093371;28;20020;-60
2022/07/08 01:48:35;;;;;;;4.88;4.68;;;;;;;;;;5093983;28;20533;-62
2022/07/08 01:51:00;;;;;;;4.80;4.60;;;;;;;;;;5086262;28;20016;-61
2022/07/08 01:53:25;;;;;;;4.70;4.50;;;;;;;;;;5094172;28;20024;-61
2022/07/08 01:55:50;;;;;;;4.85;4.65;;;;;;;;;;5092825;28;20046;-60
2022/07/08 01:58:16;;;;;;;5.00;4.80;;;;;;;;;;5093561;28;20016;-61
2022/07/08 02:00:41;;;;;;;4.80;4.60;;;;;;;;;;5091413;28;20043;-61
2022/07/08 02:03:07;;;;;;;4.90;4.70;;;;;;;;;;5092393;28;20020;-61
2022/07/08 02:05:34;;;;;;;4.80;4.60;;;;;;;;;;5082233;28;20020;-62
2022/07/08 02:07:59;;;;;;;4.80;4.60;;;;;;;;;;5093111;28;20092;-62
2022/07/08 02:10:24;;;;;;;4.80;4.60;;;;;;;;;;5101271;28;20023;-61
2022/07/08 02:12:50;;;;;;;4.90;4.70;;;;;;;;;;5093535;28;20031;-62
2022/07/08 02:15:15;;;;;;;4.80;4.60;;;;;;;;;;5092106;28;20031;-61
2022/07/08 02:17:41;;;;;;;4.70;4.50;;;;;;;;;;5091197;28;20028;-61
2022/07/08 02:20:08;;;;;;;4.68;4.47;;;;;;;;;;5093411;28;20061;-61
2022/07/08 02:22:33;;;;;;;4.80;4.60;;;;;;;;;;5093203;28;20488;-61
2022/07/08 02:24:59;;;;;;;4.53;4.32;;;;;;;;;;5093028;28;20112;-62
2022/07/08 02:27:24;;;;;;;4.80;4.60;;;;;;;;;;5093588;28;20074;-61
2022/07/08 02:29:49;;;;;;;4.95;4.75;;;;;;;;;;5098055;28;20495;-62
2022/07/08 02:32:15;;;;;;;4.80;4.60;;;;;;;;;;5092196;28;20119;-60
2022/07/08 02:34:40;;;;;;;4.80;4.60;;;;;;;;;;5091959;28;20050;-61
2022/07/08 02:37:06;;;;;;;4.90;4.70;;;;;;;;;;5092592;28;20016;-63
2022/07/08 02:39:31;;;;;;;4.70;4.50;;;;;;;;;;5092668;28;20027;-61
2022/07/08 02:41:57;;;;;;;4.78;4.57;;;;;;;;;;5092744;28;20254;-61
2022/07/08 02:44:22;;;;;;;4.80;4.60;;;;;;;;;;5093142;28;20016;-61
2022/07/08 02:46:48;;;;;;;4.90;4.70;;;;;;;;;;5085775;28;20109;-61
2022/07/08 02:49:13;;;;;;;4.60;4.40;;;;;;;;;;5077830;28;20419;-61
2022/07/08 02:51:39;;;;;;;4.90;4.70;;;;;;;;;;5091553;28;20107;-61
2022/07/08 02:54:04;;;;;;;4.70;4.50;;;;;;;;;;5092427;28;20450;-62
2022/07/08 02:56:30;;;;;;;4.93;4.72;;;;;;;;;;5092532;28;20042;-61
2022/07/08 02:58:55;;;;;;;4.80;4.60;;;;;;;;;;5092693;28;20099;-62
2022/07/08 03:01:20;;;;;;;4.70;4.50;;;;;;;;;;5093174;28;20020;-61
2022/07/08 03:03:46;;;;;;;4.68;4.47;;;;;;;;;;5090834;28;20020;-61
2022/07/08 03:06:11;;;;;;;4.80;4.60;;;;;;;;;;5092656;28;20020;-60
2022/07/08 03:08:37;;;;;;;4.80;4.60;;;;;;;;;;5083127;28;20029;-60
2022/07/08 03:11:02;;;;;;;4.68;4.47;;;;;;;;;;5071732;28;20071;-61
2022/07/08 03:13:27;;;;;;;4.80;4.60;;;;;;;;;;5092181;28;20016;-61
2022/07/08 03:15:53;;;;;;;4.80;4.60;;;;;;;;;;5092051;28;20499;-62
2022/07/08 03:18:18;;;;;;;4.72;4.53;;;;;;;;;;5095809;28;20024;-61
2022/07/08 03:20:43;;;;;;;4.80;4.60;;;;;;;;;;5092090;28;20028;-61
2022/07/08 03:23:09;;;;;;;4.90;4.70;;;;;;;;;;5092103;28;20019;-61
2022/07/08 03:25:34;;;;;;;4.75;4.55;;;;;;;;;;5096525;28;20058;-62
2022/07/08 03:28:00;;;;;;;4.72;4.53;;;;;;;;;;5096517;28;20471;-61
2022/07/08 03:30:25;;;;;;;4.80;4.60;;;;;;;;;;5091817;28;20024;-61
2022/07/08 03:32:51;;;;;;;4.80;4.60;;;;;;;;;;5090957;28;20112;-61
2022/07/08 03:35:16;;;;;;;4.88;4.68;;;;;;;;;;5092738;28;20024;-61
2022/07/08 03:37:42;;;;;;;4.65;4.45;;;;;;;;;;5091685;28;20047;-60
2022/07/08 03:42:53;;;;;;;5.10;4.90;;;;;;;;;;5084072;28;20383;-62
2022/07/08 03:45:18;;;;;;;5.05;4.85;;;;;;;;;;5090049;28;20032;-61
2022/07/08 03:47:43;;;;;;;5.00;4.80;;;;;;;;;;5091721;28;20021;-61
2022/07/08 03:50:09;;;;;;;5.13;4.93;;;;;;;;;;5091605;28;20094;-61
2022/07/08 03:52:34;;;;;;;4.90;4.70;;;;;;;;;;5090602;28;20046;-62
2022/07/08 03:54:59;;;;;;;5.00;4.80;;;;;;;;;;5090597;28;20024;-61
2022/07/08 03:57:25;;;;;;;5.00;4.80;;;;;;;;;;5091659;28;20107;-61
2022/07/08 03:59:50;;;;;;;5.00;4.80;;;;;;;;;;5089080;28;20024;-62
2022/07/08 04:02:15;;;;;;;5.20;5.00;;;;;;;;;;5084635;28;20051;-61
2022/07/08 04:04:41;;;;;;;4.88;4.68;;;;;;;;;;5091363;28;20365;-61
2022/07/08 04:07:06;;;;;;;5.00;4.80;;;;;;;;;;5091684;28;20569;-61
2022/07/08 04:09:31;;;;;;;5.13;4.93;;;;;;;;;;5091468;28;20016;-62
2022/07/08 04:11:57;;;;;;;5.28;5.07;;;;;;;;;;5086490;28;20028;-61
2022/07/08 04:14:22;;;;;;;5.10;4.90;;;;;;;;;;5091223;28;20141;-61
2022/07/08 04:16:47;;;;;;;5.10;4.90;;;;;;;;;;5090841;28;20161;-61
2022/07/08 04:19:13;;;;;;;5.10;4.90;;;;;;;;;;5091298;28;20405;-61
2022/07/08 04:21:38;;;;;;;5.40;5.20;;;;;;;;;;5095179;28;20394;-62
2022/07/08 04:24:03;;;;;;;5.45;5.25;;;;;;;;;;5094553;28;20028;-61
2022/07/08 04:26:31;;;;;;;5.63;5.43;;;;;;;;;;5095737;28;20073;-62
2022/07/08 04:29:00;;;;;;;5.70;5.50;;;;;;;;;;5095348;28;20020;-61
2022/07/08 04:31:26;;;;;;;5.78;5.57;;;;;;;;;;5095416;28;20421;-60
2022/07/08 04:33:53;;;;;;;5.78;5.57;;;;;;;;;;5094167;28;20413;-61
2022/07/08 04:36:19;;;;;;;6.00;5.80;;;;;;;;;;5094719;28;20020;-61
2022/07/08 04:38:44;;;;;;;5.90;5.70;;;;;;;;;;5094740;28;20091;-60
2022/07/08 04:41:10;;;;;;;5.90;5.70;;;;;;;;;;5095218;28;20110;-62
2022/07/08 04:43:35;;;;;;;6.40;6.10;;;;;;;;;;5096275;28;20383;-61
2022/07/08 04:46:00;;;;;;;6.25;6.05;;;;;;;;;;5091630;28;20085;-61
2022/07/08 04:48:25;;;;;;;6.23;6.00;;;;;;;;;;5090392;28;20055;-61
2022/07/08 04:50:51;;;;;;;6.10;5.90;;;;;;;;;;5093678;28;20330;-61
2022/07/08 04:53:16;;;;;;;6.10;5.90;;;;;;;;;;5094505;28;20740;-61
2022/07/08 04:55:41;;;;;;;6.40;6.10;;;;;;;;;;5094598;28;20247;-61
2022/07/08 04:58:07;;;;;;;6.20;6.00;;;;;;;;;;5095365;28;20237;-61
2022/07/08 05:00:32;;;;;;;6.35;6.05;;;;;;;;;;5089475;28;20273;-61
2022/07/08 05:02:58;;;;;;;6.20;6.00;;;;;;;;;;5083129;28;20544;-60
2022/07/08 05:05:24;;;;;;;6.45;6.15;;;;;;;;;;5094718;28;20024;-61
2022/07/08 05:07:50;;;;;;;6.13;5.93;;;;;;;;;;5093369;28;20107;-61
2022/07/08 05:10:16;;;;;;;6.20;6.00;;;;;;;;;;5094596;28;20028;-62
2022/07/08 05:12:42;;;;;;;6.30;6.05;;;;;;;;;;5092834;28;20051;-61
2022/07/08 05:15:07;;;;;;;6.13;5.93;;;;;;;;;;5086556;28;20453;-63
2022/07/08 05:17:33;;;;;;;6.25;6.03;;;;;;;;;;5095504;28;20016;-61
2022/07/08 05:19:58;;;;;;;6.40;6.10;;;;;;;;;;5097059;28;20380;-61
2022/07/08 05:22:23;;;;;;;6.18;5.97;;;;;;;;;;5093942;28;20024;-61
2022/07/08 05:24:48;;;;;;;6.40;6.10;;;;;;;;;;5089866;28;20060;-61
2022/07/08 05:27:14;;;;;;;6.30;6.05;;;;;;;;;;5079456;28;20118;-60
2022/07/08 05:29:39;;;;;;;6.10;5.90;;;;;;;;;;5093677;28;20027;-62
2022/07/08 05:32:05;;;;;;;6.50;6.20;;;;;;;;;;5093841;28;20330;-62
2022/07/08 05:34:31;;;;;;;6.45;6.15;;;;;;;;;;5092772;28;20264;-62
2022/07/08 05:36:56;;;;;;;6.22;6.03;;;;;;;;;;5086380;28;20056;-61
2022/07/08 05:39:22;;;;;;;6.53;6.22;;;;;;;;;;5093732;28;20036;-61
2022/07/08 05:41:47;;;;;;;6.43;6.13;;;;;;;;;;5092342;28;20214;-62
2022/07/08 05:44:12;;;;;;;6.45;6.15;;;;;;;;;;5093576;28;20077;-61
2022/07/08 05:46:38;;;;;;;6.25;6.03;;;;;;;;;;5093742;28;20031;-62
2022/07/08 05:49:03;;;;;;;6.43;6.13;;;;;;;;;;5093417;28;20135;-61
2022/07/08 05:51:28;;;;;;;6.20;6.00;;;;;;;;;;5093977;28;20027;-62
2022/07/08 05:53:55;;;;;;;6.03;5.83;;;;;;;;;;5093787;28;20380;-63
2022/07/08 05:56:20;;;;;;;6.40;6.10;;;;;;;;;;5090507;28;20324;-62
2022/07/08 05:58:46;;;;;;;6.70;6.40;;;;;;;;;;5089357;28;20422;-63
2022/07/08 06:01:11;;;;;;;6.60;6.30;;;;;;;;;;5092334;28;20020;-62
2022/07/08 06:03:36;;;;;;;6.25;6.03;;;;;;;;;;5093579;28;20024;-62
2022/07/08 06:06:02;;;;;;;6.35;6.07;;;;;;;;;;5093312;28;20529;-62
2022/07/08 06:08:27;;;;;;;6.43;6.13;;;;;;;;;;5099949;28;20030;-61
2022/07/08 06:10:53;;;;;;;6.23;5.93;;;;;;;;;;5093602;28;20027;-62
2022/07/08 06:13:18;;;;;;;6.20;6.00;;;;;;;;;;5093046;28;20256;-62
2022/07/08 06:15:43;;;;;;;6.10;5.90;;;;;;;;;;5097795;28;20431;-62
2022/07/08 06:18:09;;;;;;;6.20;6.00;;;;;;;;;;5093009;28;20027;-64
2022/07/08 06:20:34;;;;;;;6.13;5.93;;;;;;;;;;5093127;28;20107;-61
2022/07/08 06:22:59;;;;;;;5.82;5.63;;;;;;;;;;5092867;28;20252;-62
2022/07/08 06:25:25;;;;;;;6.00;5.80;;;;;;;;;;5093529;28;20016;-64
2022/07/08 06:27:50;;;;;;;6.00;5.80;;;;;;;;;;5091952;28;20106;-62
2022/07/08 06:30:15;;;;;;;6.07;5.88;;;;;;;;;;5083692;28;20035;-61
2022/07/08 06:32:40;;;;;;;6.53;6.22;;;;;;;;;;5089768;28;20044;-61
2022/07/08 06:35:06;;;;;;;6.43;6.13;;;;;;;;;;5090042;28;20008;-62
2022/07/08 06:37:31;;;;;;;6.60;6.30;;;;;;;;;;5091475;28;20047;-63
2022/07/08 06:39:57;;;;;;;6.05;5.85;;;;;;;;;;5088574;28;20027;-62
2022/07/08 06:42:22;;;;;;;6.47;6.17;;;;;;;;;;5091574;28;20054;-62
2022/07/08 06:44:49;;;;;;;6.60;6.30;;;;;;;;;;5076923;28;20028;-61
2022/07/08 06:47:14;;;;;;;6.40;6.10;;;;;;;;;;5090519;28;20593;-61
2022/07/08 06:49:39;;;;;;;6.32;6.05;;;;;;;;;;5090179;28;20055;-62
2022/07/08 06:52:05;;;;;;;6.43;6.13;;;;;;;;;;5090842;28;20028;-63
2022/07/08 06:54:36;;;;;;;6.53;6.22;;;;;;;;;;5089877;28;20049;-62
2022/07/08 06:57:03;;;;;;;6.47;6.18;;;;;;;;;;5085649;28;20042;-63
2022/07/08 06:59:28;;;;;;;6.18;5.97;;;;;;;;;;5092024;28;20020;-62
2022/07/08 07:01:54;;;;;;;6.47;6.18;;;;;;;;;;5090898;28;20035;-62
2022/07/08 07:04:19;;;;;;;6.50;6.20;;;;;;;;;;5091059;28;20040;-62
2022/07/08 07:06:45;;;;;;;6.65;6.35;;;;;;;;;;5085776;28;20039;-62
2022/07/08 07:09:10;;;;;;;6.47;6.18;;;;;;;;;;5090782;28;20073;-62
2022/07/08 07:11:38;;;;;;;6.50;6.20;;;;;;;;;;5083757;28;20028;-62
2022/07/08 07:14:03;;;;;;;6.60;6.30;;;;;;;;;;5089513;28;20024;-62
2022/07/08 07:16:29;;;;;;;6.20;6.00;;;;;;;;;;5091212;28;20099;-62
2022/07/08 07:18:54;;;;;;;6.50;6.20;;;;;;;;;;5090457;28;20024;-61
2022/07/08 07:21:19;;;;;;;6.55;6.25;;;;;;;;;;5090716;28;20252;-62
2022/07/08 07:23:44;;;;;;;6.53;6.23;;;;;;;;;;5089178;28;20028;-62
2022/07/08 07:26:10;;;;;;;6.55;6.25;;;;;;;;;;5090458;28;20261;-61
2022/07/08 07:28:35;;;;;;;6.50;6.20;;;;;;;;;;5089780;28;20062;-63
2022/07/08 07:31:01;;;;;;;6.32;6.05;;;;;;;;;;5089544;28;20265;-62
2022/07/08 07:33:26;;;;;;;6.27;6.03;;;;;;;;;;5090611;28;20055;-62
2022/07/08 07:35:51;;;;;;;6.38;6.07;;;;;;;;;;5090626;28;20291;-62
2022/07/08 07:38:17;;;;;;;6.40;6.10;;;;;;;;;;5090826;28;20024;-62
2022/07/08 07:40:42;;;;;;;6.20;6.00;;;;;;;;;;5089768;28;20132;-62
2022/07/08 07:43:07;;;;;;;6.47;6.18;;;;;;;;;;5090177;28;20312;-62
2022/07/08 07:45:33;;;;;;;6.40;6.10;;;;;;;;;;5084461;28;20028;-62
2022/07/08 07:47:58;;;;;;;6.20;6.00;;;;;;;;;;5090128;28;20008;-62
2022/07/08 07:50:23;;;;;;;6.13;5.93;;;;;;;;;;5090948;28;20032;-62
2022/07/08 07:52:49;;;;;;;6.03;5.82;;;;;;;;;;5090059;28;20067;-62
2022/07/08 07:55:14;;;;;;;5.73;5.53;;;;;;;;;;5080059;28;20494;-61
2022/07/08 07:57:39;;;;;;;5.90;5.70;;;;;;;;;;5088701;28;20020;-61
2022/07/08 08:00:06;;;;;;;6.00;5.80;;;;;;;;;;5092914;28;20248;-62
2022/07/08 08:02:31;;;;;;;6.05;5.85;;;;;;;;;;5093352;28;20962;-61
2022/07/08 08:04:57;;;;;;;6.07;5.88;;;;;;;;;;5085730;28;20073;-62
2022/07/08 08:07:22;;;;;;;6.07;5.87;;;;;;;;;;5099005;28;20111;-61
2022/07/08 08:09:47;;;;;;;5.90;5.70;;;;;;;;;;5094368;28;20253;-61
2022/07/08 08:12:12;;;;;;;5.87;5.67;;;;;;;;;;5092962;28;20276;-62
2022/07/08 08:14:38;;;;;;;5.90;5.70;;;;;;;;;;5093054;28;20343;-63
2022/07/08 08:17:03;;;;;;;5.90;5.70;;;;;;;;;;5094107;28;20272;-61
2022/07/08 08:19:28;;;;;;;5.70;5.50;;;;;;;;;;5094091;28;20016;-61
2022/07/08 08:21:54;;;;;;;5.60;5.40;;;;;;;;;;5093472;28;20023;-61
2022/07/08 08:24:19;;;;;;;5.63;5.43;;;;;;;;;;5087291;28;20024;-62
2022/07/08 08:26:46;;;;;;;5.78;5.57;;;;;;;;;;5092813;28;21050;-61
2022/07/08 08:29:11;;;;;;;5.70;5.50;;;;;;;;;;5093681;28;20111;-61
2022/07/08 08:31:36;;;;;;;5.78;5.57;;;;;;;;;;5093080;28;20106;-62
2022/07/08 08:34:02;;;;;;;5.78;5.57;;;;;;;;;;5093465;28;20020;-62
2022/07/08 08:36:27;;;;;;;5.75;5.55;;;;;;;;;;5092699;28;20020;-62
2022/07/08 08:38:53;;;;;;;5.88;5.68;;;;;;;;;;5092701;28;20034;-62
2022/07/08 08:41:18;;;;;;;5.75;5.55;;;;;;;;;;5094800;28;20039;-61
2022/07/08 08:43:44;;;;;;;5.80;5.60;;;;;;;;;;5093495;28;20031;-62
2022/07/08 08:46:10;;;;;;;5.90;5.70;;;;;;;;;;5092963;28;20073;-62
2022/07/08 08:48:39;;;;;;;5.70;5.50;;;;;;;;;;5091945;28;20056;-62
2022/07/08 08:51:07;;;;;;;5.65;5.45;;;;;;;;;;5092046;28;20031;-61
2022/07/08 08:53:40;;;;;;;5.70;5.50;;;;;;;;;;5092816;28;20059;-62
2022/07/08 08:56:08;;;;;;;5.80;5.60;;;;;;;;;;5093330;28;20020;-62
2022/07/08 08:58:35;;;;;;;5.70;5.50;;;;;;;;;;5092283;28;20073;-61
2022/07/08 09:01:01;;;;;;;5.80;5.60;;;;;;;;;;5092995;28;20023;-62
2022/07/08 09:03:26;;;;;;;5.70;5.50;;;;;;;;;;5094554;28;20099;-62
2022/07/08 09:05:51;;;;;;;5.60;5.40;;;;;;;;;;5091347;28;20568;-61
2022/07/08 09:08:17;;;;;;;5.70;5.50;;;;;;;;;;5091503;28;20467;-61
2022/07/08 09:10:42;;;;;;;5.70;5.50;;;;;;;;;;5091818;28;20040;-61
2022/07/08 09:13:10;;;;;;;5.68;5.47;;;;;;;;;;5093757;28;20016;-61
2022/07/08 09:15:43;;;;;;;5.40;5.20;;;;;;;;;;5094684;28;20108;-61
2022/07/08 09:18:09;;;;;;;5.50;5.30;;;;;;;;;;5094334;28;20423;-62
2022/07/08 09:20:38;;;;;;;5.63;5.43;;;;;;;;;;5092797;28;20484;-61
2022/07/08 09:23:04;;;;;;;5.72;5.53;;;;;;;;;;5087920;28;20032;-64
2022/07/08 09:25:31;;;;;;;5.70;5.50;;;;;;;;;;5079885;28;20021;-62
2022/07/08 09:27:58;;;;;;;5.70;5.50;;;;;;;;;;5088625;28;20481;-62
2022/07/08 09:30:26;;;;;;;5.70;5.50;;;;;;;;;;5090269;28;20158;-62
2022/07/08 09:33:01;;;;;;;5.60;5.40;;;;;;;;;;5089834;28;20016;-62
2022/07/08 09:35:35;;;;;;;5.70;5.50;;;;;;;;;;5090074;28;20023;-63
2022/07/08 09:38:01;;;;;;;5.70;5.50;;;;;;;;;;5090059;28;20019;-64
2022/07/08 09:40:26;;;;;;;5.68;5.47;;;;;;;;;;5079604;28;20032;-64
2022/07/08 09:42:51;;;;;;;5.60;5.40;;;;;;;;;;5088282;28;20879;-63
2022/07/08 09:45:16;;;;;;;5.60;5.40;;;;;;;;;;5088277;28;20131;-64
2022/07/08 09:47:43;;;;;;;5.60;5.40;;;;;;;;;;5089768;28;20015;-64
2022/07/08 09:50:09;;;;;;;5.72;5.53;;;;;;;;;;5097072;28;20055;-64
2022/07/08 09:52:34;;;;;;;5.57;5.38;;;;;;;;;;5082026;28;20020;-64
2022/07/08 09:55:01;;;;;;;5.60;5.40;;;;;;;;;;5081202;28;20012;-64
2022/07/08 09:57:27;;;;;;;5.60;5.40;;;;;;;;;;5087746;28;20035;-64
2022/07/08 09:59:53;;;;;;;5.60;5.40;;;;;;;;;;5091461;28;20446;-65
2022/07/08 10:02:19;;;;;;;5.60;5.40;;;;;;;;;;5088750;28;20059;-65
2022/07/08 10:04:44;;;;;;;5.72;5.53;;;;;;;;;;5078888;28;20020;-64
2022/07/08 10:07:09;;;;;;;5.60;5.40;;;;;;;;;;5088226;28;20059;-64
2022/07/08 10:09:35;;;;;;;5.50;5.30;;;;;;;;;;5087876;28;20016;-63
2022/07/08 10:12:00;;;;;;;5.70;5.50;;;;;;;;;;5088493;28;20275;-65
2022/07/08 10:14:26;;;;;;;5.70;5.50;;;;;;;;;;5088843;28;20051;-64
2022/07/08 10:16:52;;;;;;;5.78;5.57;;;;;;;;;;5087349;28;20585;-64
2022/07/08 10:19:21;;;;;;;5.70;5.50;;;;;;;;;;5087126;28;20120;-64
2022/07/08 10:21:50;;;;;;;5.72;5.53;;;;;;;;;;5076669;28;20515;-65
2022/07/08 10:24:18;;;;;;;5.60;5.40;;;;;;;;;;5096466;28;20099;-63
2022/07/08 10:26:44;;;;;;;5.70;5.50;;;;;;;;;;5088143;28;20062;-65
2022/07/08 10:29:12;;;;;;;5.60;5.40;;;;;;;;;;5089300;28;20036;-63
2022/07/08 10:31:42;;;;;;;5.60;5.40;;;;;;;;;;5088377;28;20020;-62
2022/07/08 10:34:08;;;;;;;5.60;5.40;;;;;;;;;;5087737;28;20024;-62
2022/07/08 10:36:47;;;;;;;5.70;5.50;;;;;;;;;;5088984;28;20302;-64
2022/07/08 10:39:13;;;;;;;5.60;5.40;;;;;;;;;;5080210;28;20422;-63
2022/07/08 10:41:39;;;;;;;5.70;5.50;;;;;;;;;;5083886;28;20028;-65
2022/07/08 10:44:05;;;;;;;5.40;5.20;;;;;;;;;;5091249;28;20095;-63
2022/07/08 10:46:30;;;;;;;5.60;5.40;;;;;;;;;;5088810;28;20051;-65
2022/07/08 10:48:56;;;;;;;5.60;5.40;;;;;;;;;;5084694;28;20036;-63
2022/07/08 10:51:24;;;;;;;5.70;5.50;;;;;;;;;;5087412;28;20023;-63
2022/07/08 10:53:57;;;;;;;5.60;5.40;;;;;;;;;;5081750;28;20099;-64
2022/07/08 10:56:41;;;;;;;5.70;5.50;;;;;;;;;;5085458;28;20456;-63
2022/07/08 10:59:18;;;;;;;5.60;5.40;;;;;;;;;;5080595;28;20020;-66
2022/07/08 11:01:53;;;;;;;5.38;5.18;;;;;;;;;;5087621;28;20563;-63
2022/07/08 11:04:19;;;;;;;5.50;5.30;;;;;;;;;;5083412;28;20039;-63
2022/07/08 11:06:44;;;;;;;5.50;5.30;;;;;;;;;;5088425;28;20364;-63
2022/07/08 11:09:09;;;;;;;5.50;5.30;;;;;;;;;;5087345;28;20035;-62
2022/07/08 11:11:36;;;;;;;5.40;5.20;;;;;;;;;;5088763;28;20016;-63
2022/07/08 11:14:02;;;;;;;5.28;5.07;;;;;;;;;;5094610;28;20521;-63
2022/07/08 11:16:30;;;;;;;5.47;5.28;;;;;;;;;;5081234;28;20085;-63
2022/07/08 11:18:56;;;;;;;5.50;5.30;;;;;;;;;;5086983;28;20020;-63
2022/07/08 11:21:21;;;;;;;5.60;5.40;;;;;;;;;;5083913;28;20035;-62
2022/07/08 11:23:46;;;;;;;5.70;5.50;;;;;;;;;;5085920;28;20021;-63
2022/07/08 11:26:16;;;;;;;5.38;5.18;;;;;;;;;;5087293;28;20111;-63
2022/07/08 11:28:42;;;;;;;5.55;5.35;;;;;;;;;;5087951;28;20526;-63
2022/07/08 11:31:18;;;;;;;5.40;5.20;;;;;;;;;;5085527;28;20035;-62
2022/07/08 11:33:43;;;;;;;5.60;5.40;;;;;;;;;;5087910;28;20715;-62
2022/07/08 11:36:16;;;;;;;5.40;5.20;;;;;;;;;;5085939;28;20047;-63
2022/07/08 11:38:41;;;;;;;5.50;5.30;;;;;;;;;;5078652;28;20028;-61
2022/07/08 11:41:07;;;;;;;5.60;5.40;;;;;;;;;;5088559;28;20027;-62
2022/07/08 11:43:32;;;;;;;5.65;5.45;;;;;;;;;;5089831;28;20038;-62
2022/07/08 11:45:57;;;;;;;5.63;5.43;;;;;;;;;;5089998;28;20123;-62
2022/07/08 11:48:34;;;;;;;5.47;5.28;;;;;;;;;;5091415;28;20119;-62
2022/07/08 11:50:59;;;;;;;5.60;5.40;;;;;;;;;;5093419;28;20027;-63
2022/07/08 11:53:26;;;;;;;5.60;5.40;;;;;;;;;;5093260;28;20549;-63
2022/07/08 11:55:51;;;;;;;5.60;5.40;;;;;;;;;;5084478;28;20065;-63
2022/07/08 11:58:23;;;;;;;5.53;5.33;;;;;;;;;;5085163;28;20020;-63
2022/07/08 12:00:50;;;;;;;5.50;5.30;;;;;;;;;;5091392;28;20241;-62
2022/07/08 12:03:15;;;;;;;5.30;5.10;;;;;;;;;;5080375;28;20096;-63
2022/07/08 12:05:40;;;;;;;5.50;5.30;;;;;;;;;;5090284;28;20452;-63
2022/07/08 12:08:12;;;;;;;5.50;5.30;;;;;;;;;;5087776;28;20428;-63
2022/07/08 12:10:37;;;;;;;5.57;5.38;;;;;;;;;;5086739;28;20028;-62
2022/07/08 12:13:03;;;;;;;5.50;5.30;;;;;;;;;;5086850;28;20016;-62
2022/07/08 12:15:35;;;;;;;5.50;5.30;;;;;;;;;;5074284;28;20078;-63
2022/07/08 12:18:02;;;;;;;5.60;5.40;;;;;;;;;;5076639;28;20051;-63
2022/07/08 12:20:34;;;;;;;5.60;5.40;;;;;;;;;;5080187;28;20093;-62
2022/07/08 12:22:59;;;;;;;5.53;5.32;;;;;;;;;;5088847;28;20023;-63
2022/07/08 12:25:25;;;;;;;5.43;5.22;;;;;;;;;;5086827;28;20757;-63
2022/07/08 12:27:57;;;;;;;5.50;5.30;;;;;;;;;;5084825;28;20020;-64
2022/07/08 12:30:30;;;;;;;5.40;5.20;;;;;;;;;;5086958;28;20476;-62
2022/07/08 12:32:59;;;;;;;5.38;5.18;;;;;;;;;;5081419;28;20169;-62
2022/07/08 12:35:29;;;;;;;5.50;5.30;;;;;;;;;;5086641;28;20030;-63
2022/07/08 12:38:07;;;;;;;5.40;5.20;;;;;;;;;;5081470;28;20012;-61
2022/07/08 12:40:39;;;;;;;5.45;5.25;;;;;;;;;;5085479;28;20031;-63
2022/07/08 12:43:05;;;;;;;5.45;5.25;;;;;;;;;;5087499;28;20028;-61
2022/07/08 12:45:31;;;;;;;5.47;5.28;;;;;;;;;;5079502;28;20059;-61
2022/07/08 12:48:00;;;;;;;5.50;5.30;;;;;;;;;;5091247;28;20051;-61
2022/07/08 12:50:26;;;;;;;5.60;5.40;;;;;;;;;;5085746;28;20028;-62
2022/07/08 12:52:51;;;;;;;5.70;5.50;;;;;;;;;;5080143;28;20556;-63
2022/07/08 12:55:16;;;;;;;5.55;5.35;;;;;;;;;;5087844;28;20095;-63
2022/07/08 12:57:42;;;;;;;5.40;5.20;;;;;;;;;;5099377;27;20024;-62
2022/07/08 13:00:08;;;;;;;5.50;5.30;;;;;;;;;;5085318;28;20032;-64
2022/07/08 13:02:33;;;;;;;5.40;5.20;;;;;;;;;;5092348;28;20016;-64
2022/07/08 13:04:58;;;;;;;5.43;5.22;;;;;;;;;;5091654;28;20467;-63
2022/07/08 13:07:24;;;;;;;5.40;5.20;;;;;;;;;;5092003;28;20093;-63
2022/07/08 13:09:49;;;;;;;5.47;5.28;;;;;;;;;;5093223;28;20024;-64
2022/07/08 13:12:14;;;;;;;5.60;5.40;;;;;;;;;;5092858;28;20016;-63
2022/07/08 13:14:40;;;;;;;5.50;5.30;;;;;;;;;;5093044;28;20016;-63
2022/07/08 13:17:05;;;;;;;5.50;5.30;;;;;;;;;;5093051;28;20120;-63
2022/07/08 13:19:31;;;;;;;5.40;5.20;;;;;;;;;;5092247;28;20475;-63
2022/07/08 13:21:56;;;;;;;5.30;5.10;;;;;;;;;;5088249;28;20012;-62
2022/07/08 13:24:22;;;;;;;5.40;5.20;;;;;;;;;;5092969;28;20790;-62
2022/07/08 13:26:47;;;;;;;5.47;5.28;;;;;;;;;;5092756;28;20379;-63
2022/07/08 13:29:13;;;;;;;5.40;5.20;;;;;;;;;;5093517;28;20054;-64
2022/07/08 13:31:38;;;;;;;5.40;5.20;;;;;;;;;;5091712;28;20421;-62
2022/07/08 13:34:03;;;;;;;5.40;5.20;;;;;;;;;;5092573;28;20680;-63
2022/07/08 13:36:30;;;;;;;5.45;5.25;;;;;;;;;;5092465;28;20031;-63
2022/07/08 13:38:55;;;;;;;5.47;5.28;;;;;;;;;;5079770;28;20103;-63
2022/07/08 13:41:20;;;;;;;5.53;5.32;;;;;;;;;;5084319;28;20166;-63
2022/07/08 13:43:46;;;;;;;5.50;5.30;;;;;;;;;;5086970;28;20506;-63
2022/07/08 13:46:11;;;;;;;5.43;5.22;;;;;;;;;;5094111;28;20020;-64
2022/07/08 13:48:37;;;;;;;5.30;5.10;;;;;;;;;;5080234;28;20043;-64
2022/07/08 13:51:02;;;;;;;5.50;5.30;;;;;;;;;;5092637;28;20024;-64
2022/07/08 13:53:29;;;;;;;5.40;5.20;;;;;;;;;;5090640;28;20623;-64
2022/07/08 13:55:54;;;;;;;5.40;5.20;;;;;;;;;;5091841;28;20020;-64
2022/07/08 13:58:19;;;;;;;5.40;5.20;;;;;;;;;;5088463;28;20024;-64
2022/07/08 14:00:45;;;;;;;5.50;5.30;;;;;;;;;;5092175;28;20024;-63
2022/07/08 14:03:10;;;;;;;5.43;5.22;;;;;;;;;;5092064;28;20016;-62
2022/07/08 14:05:35;;;;;;;5.30;5.10;;;;;;;;;;5092648;28;20119;-61
2022/07/08 14:08:01;;;;;;;5.50;5.30;;;;;;;;;;5089225;28;20024;-61
2022/07/08 14:10:27;;;;;;;5.30;5.10;;;;;;;;;;5093248;28;20087;-61
2022/07/08 14:12:52;;;;;;;5.70;5.50;;;;;;;;;;5091724;28;20081;-62
2022/07/08 14:15:18;;;;;;;5.47;5.28;;;;;;;;;;5093203;28;20463;-62
2022/07/08 14:17:43;;;;;;;5.38;5.18;;;;;;;;;;5093115;28;20528;-62
2022/07/08 14:20:09;;;;;;;5.47;5.28;;;;;;;;;;5089366;28;20025;-61
2022/07/08 14:22:34;;;;;;;5.60;5.40;;;;;;;;;;5083115;28;20024;-61
2022/07/08 14:24:59;;;;;;;5.30;5.10;;;;;;;;;;5092501;28;20112;-61
2022/07/08 14:27:25;;;;;;;5.22;5.03;;;;;;;;;;5081371;28;20597;-62
2022/07/08 14:29:50;;;;;;;5.35;5.15;;;;;;;;;;5090364;28;20387;-62
2022/07/08 14:32:16;;;;;;;5.50;5.30;;;;;;;;;;5090620;28;20085;-61
2022/07/08 14:34:41;;;;;;;5.30;5.10;;;;;;;;;;5088962;28;20016;-62
2022/07/08 14:37:07;;;;;;;5.38;5.18;;;;;;;;;;5091617;28;20020;-61
2022/07/08 14:39:32;;;;;;;5.28;5.07;;;;;;;;;;5092041;28;20018;-62